This is the latest recevied weather packets stored in our database for station/object N4BBA. If no packets are shown the sender has not sent any weather packets the latest 10 day(s).
| Time | Temp. | Humidity | Pressure | Rain* | Wind** | Luminosity | Snow |
|---|---|---|---|---|---|---|---|
| 1777585195 | 22.78° C | 53% | 1008.4 hPa | 0 mm | - | 292 W/m² | - |
| 1777584891 | 22.22° C | 57% | 1008.5 hPa | 0 mm | - | 314 W/m² | - |
| 1777584589 | 22.22° C | 55% | 1008 hPa | 0 mm | - | 293 W/m² | - |
| 1777584285 | 22.22° C | 54% | 1008.2 hPa | 0 mm | - | 295 W/m² | - |
| 1777583981 | 22.78° C | 54% | 1008.2 hPa | 0 mm | - | 348 W/m² | - |
| 1777583676 | 23.33° C | 54% | 1008.4 hPa | 0 mm | - | 365 W/m² | - |
| 1777583375 | 22.78° C | 55% | 1008.5 hPa | 0 mm | - | 431 W/m² | - |
| 1777583074 | 21.67° C | 58% | 1008.5 hPa | 0 mm | - | 506 W/m² | - |
| 1777582771 | 21.67° C | 58% | 1008.6 hPa | 0 mm | - | 329 W/m² | - |
| 1777582467 | 21.67° C | 57% | 1008.5 hPa | 0 mm | - | 203 W/m² | - |
| 1777582162 | 21.67° C | 56% | 1008.4 hPa | 0 mm | - | 293 W/m² | - |
| 1777581861 | 21.67° C | 56% | 1008.7 hPa | 0 mm | - | 437 W/m² | - |
| 1777581561 | 21.67° C | 57% | 1008.6 hPa | 0 mm | - | 279 W/m² | - |
| 1777581256 | 21.11° C | 59% | 1008.8 hPa | 0 mm | - | 180 W/m² | - |
| 1777580951 | 21.11° C | 58% | 1009 hPa | 0 mm | - | 124 W/m² | - |
| 1777580645 | 21.67° C | 57% | 1008.7 hPa | 0 mm | - | 144 W/m² | - |
| 1777580341 | 21.11° C | 57% | 1008.7 hPa | 0 mm | - | 147 W/m² | - |
| 1777580038 | 21.67° C | 56% | 1008.9 hPa | 0 mm | - | 119 W/m² | - |
| 1777579734 | 21.67° C | 56% | 1008.8 hPa | 0 mm | - | 147 W/m² | - |
| 1777579432 | 21.67° C | 55% | 1008.7 hPa | 0 mm | - | 163 W/m² | - |
| 1777579127 | 22.22° C | 51% | 1008.8 hPa | 0 mm | - | 203 W/m² | - |
| 1777578827 | 22.78° C | 53% | 1008.7 hPa | 0 mm | - | 264 W/m² | - |
| 1777578523 | 23.33° C | 51% | 1008.9 hPa | 0 mm | - | 291 W/m² | - |
| 1777578218 | 23.89° C | 51% | 1008.7 hPa | 0 mm | - | 820 W/m² | - |
| 1777577913 | 22.78° C | 53% | 1008.8 hPa | 0 mm | - | 629 W/m² | - |
* Rain latest hour (hover to see other rain measurements)
** Current wind speed in m/s (hover to see current wind gust speed)